Terminal Aerodrome Forecast
Issued by NWS

Home | Current Version | Previous Version | Text Only | Print | Product List | Glossary On
Versions: 1 2 3 4 5 6 7 8 9 10 11 12 13 14 15 16 17 18 19
497
FTPA31 PHFO 201140
TAFHLI
TAF
PHLI 201140Z 2012/2112 08010KT P6SM FEW025 BKN035
     FM202000 03012KT P6SM FEW025 SCT035
     FM210800 03015G22KT P6SM VCSH SCT025 BKN040=

USA.gov is the U.S. government's official web portal to all federal, state and local government web resources and services.